sensor_id;sensor_type;location;lat;lon;timestamp;temperature;humidity
44477;DHT22;30180;44.788;10.366;2023-07-13T00:01:25;27.10;65.50
44477;DHT22;30180;44.788;10.366;2023-07-13T00:03:54;27.10;65.50
44477;DHT22;30180;44.788;10.366;2023-07-13T00:06:23;27.10;65.50
44477;DHT22;30180;44.788;10.366;2023-07-13T00:08:51;27.10;65.40
44477;DHT22;30180;44.788;10.366;2023-07-13T00:11:21;27.10;65.40
44477;DHT22;30180;44.788;10.366;2023-07-13T00:13:50;27.10;65.40
44477;DHT22;30180;44.788;10.366;2023-07-13T00:16:19;27.00;65.40
44477;DHT22;30180;44.788;10.366;2023-07-13T00:18:47;27.10;65.50
44477;DHT22;30180;44.788;10.366;2023-07-13T00:21:16;27.10;65.40
44477;DHT22;30180;44.788;10.366;2023-07-13T00:23:44;27.10;65.40
44477;DHT22;30180;44.788;10.366;2023-07-13T00:26:13;27.10;65.50
44477;DHT22;30180;44.788;10.366;2023-07-13T00:28:43;27.10;65.40
44477;DHT22;30180;44.788;10.366;2023-07-13T00:31:12;27.10;65.50
44477;DHT22;30180;44.788;10.366;2023-07-13T00:33:42;27.10;65.50
44477;DHT22;30180;44.788;10.366;2023-07-13T00:36:10;27.10;65.50
44477;DHT22;30180;44.788;10.366;2023-07-13T00:38:39;27.10;65.50
44477;DHT22;30180;44.788;10.366;2023-07-13T00:41:08;27.10;65.50
44477;DHT22;30180;44.788;10.366;2023-07-13T00:43:37;27.10;65.50
44477;DHT22;30180;44.788;10.366;2023-07-13T00:46:20;27.10;65.50
44477;DHT22;30180;44.788;10.366;2023-07-13T00:48:51;27.10;65.50
44477;DHT22;30180;44.788;10.366;2023-07-13T00:51:25;27.10;65.50
44477;DHT22;30180;44.788;10.366;2023-07-13T00:53:58;27.10;65.50
44477;DHT22;30180;44.788;10.366;2023-07-13T00:56:28;27.10;65.50
44477;DHT22;30180;44.788;10.366;2023-07-13T00:58:57;27.10;65.50
44477;DHT22;30180;44.788;10.366;2023-07-13T01:01:29;27.10;65.50
44477;DHT22;30180;44.788;10.366;2023-07-13T01:03:57;27.10;65.50
44477;DHT22;30180;44.788;10.366;2023-07-13T01:06:26;27.10;65.50
44477;DHT22;30180;44.788;10.366;2023-07-13T01:08:56;27.10;65.50
44477;DHT22;30180;44.788;10.366;2023-07-13T01:11:26;27.10;65.50
44477;DHT22;30180;44.788;10.366;2023-07-13T01:13:55;27.10;65.50
44477;DHT22;30180;44.788;10.366;2023-07-13T01:16:25;27.10;65.50
44477;DHT22;30180;44.788;10.366;2023-07-13T01:18:56;27.10;65.50
44477;DHT22;30180;44.788;10.366;2023-07-13T01:21:29;27.10;65.50
44477;DHT22;30180;44.788;10.366;2023-07-13T01:23:58;27.10;65.50
44477;DHT22;30180;44.788;10.366;2023-07-13T01:26:26;27.10;65.60
44477;DHT22;30180;44.788;10.366;2023-07-13T01:28:55;27.10;65.60
44477;DHT22;30180;44.788;10.366;2023-07-13T01:31:24;27.10;65.60
44477;DHT22;30180;44.788;10.366;2023-07-13T01:33:53;27.10;65.60
44477;DHT22;30180;44.788;10.366;2023-07-13T01:36:22;27.00;65.50
44477;DHT22;30180;44.788;10.366;2023-07-13T01:38:52;27.10;65.60
44477;DHT22;30180;44.788;10.366;2023-07-13T01:41:20;27.10;65.60
44477;DHT22;30180;44.788;10.366;2023-07-13T01:43:49;27.10;65.60
44477;DHT22;30180;44.788;10.366;2023-07-13T01:46:17;27.10;65.60
44477;DHT22;30180;44.788;10.366;2023-07-13T01:48:50;27.10;65.60
44477;DHT22;30180;44.788;10.366;2023-07-13T01:51:19;27.10;65.60
44477;DHT22;30180;44.788;10.366;2023-07-13T01:53:47;27.10;65.60
44477;DHT22;30180;44.788;10.366;2023-07-13T01:56:18;27.10;65.60
44477;DHT22;30180;44.788;10.366;2023-07-13T01:58:47;27.10;65.60
44477;DHT22;30180;44.788;10.366;2023-07-13T02:01:16;27.10;65.60
44477;DHT22;30180;44.788;10.366;2023-07-13T02:03:44;27.10;65.60
44477;DHT22;30180;44.788;10.366;2023-07-13T02:06:13;27.10;65.60
44477;DHT22;30180;44.788;10.366;2023-07-13T02:08:42;27.10;65.60
44477;DHT22;30180;44.788;10.366;2023-07-13T02:11:10;27.10;65.60
44477;DHT22;30180;44.788;10.366;2023-07-13T02:13:40;27.10;65.60
44477;DHT22;30180;44.788;10.366;2023-07-13T02:16:08;27.10;65.60
44477;DHT22;30180;44.788;10.366;2023-07-13T02:18:37;27.10;65.70
44477;DHT22;30180;44.788;10.366;2023-07-13T02:21:06;27.10;65.60
44477;DHT22;30180;44.788;10.366;2023-07-13T02:23:34;27.10;65.60
44477;DHT22;30180;44.788;10.366;2023-07-13T02:26:04;27.10;65.70
44477;DHT22;30180;44.788;10.366;2023-07-13T02:28:32;27.10;65.70
44477;DHT22;30180;44.788;10.366;2023-07-13T02:31:10;27.10;65.70
44477;DHT22;30180;44.788;10.366;2023-07-13T02:33:38;27.10;65.70
44477;DHT22;30180;44.788;10.366;2023-07-13T02:36:07;27.10;65.70
44477;DHT22;30180;44.788;10.366;2023-07-13T02:38:36;27.10;65.70
44477;DHT22;30180;44.788;10.366;2023-07-13T02:41:06;27.10;65.70
44477;DHT22;30180;44.788;10.366;2023-07-13T02:43:35;27.10;65.70
44477;DHT22;30180;44.788;10.366;2023-07-13T02:46:04;27.10;65.70
44477;DHT22;30180;44.788;10.366;2023-07-13T02:48:37;27.10;65.70
44477;DHT22;30180;44.788;10.366;2023-07-13T02:51:07;27.10;65.70
44477;DHT22;30180;44.788;10.366;2023-07-13T02:53:36;27.10;65.70
44477;DHT22;30180;44.788;10.366;2023-07-13T02:56:05;27.10;65.70
44477;DHT22;30180;44.788;10.366;2023-07-13T02:58:34;27.10;65.70
44477;DHT22;30180;44.788;10.366;2023-07-13T03:01:10;27.10;65.70
44477;DHT22;30180;44.788;10.366;2023-07-13T03:03:40;27.10;65.70
44477;DHT22;30180;44.788;10.366;2023-07-13T03:06:08;27.10;65.70
44477;DHT22;30180;44.788;10.366;2023-07-13T03:08:37;27.10;65.70
44477;DHT22;30180;44.788;10.366;2023-07-13T03:11:07;27.10;65.70
44477;DHT22;30180;44.788;10.366;2023-07-13T03:13:36;27.10;65.70
44477;DHT22;30180;44.788;10.366;2023-07-13T03:16:04;27.10;65.70
44477;DHT22;30180;44.788;10.366;2023-07-13T03:18:35;27.10;65.70
44477;DHT22;30180;44.788;10.366;2023-07-13T03:21:05;27.10;65.70
44477;DHT22;30180;44.788;10.366;2023-07-13T03:23:34;27.10;65.80
44477;DHT22;30180;44.788;10.366;2023-07-13T03:26:04;27.10;65.70
44477;DHT22;30180;44.788;10.366;2023-07-13T03:28:34;27.10;65.80
44477;DHT22;30180;44.788;10.366;2023-07-13T03:31:04;27.10;65.80
44477;DHT22;30180;44.788;10.366;2023-07-13T03:33:32;27.10;65.80
44477;DHT22;30180;44.788;10.366;2023-07-13T03:36:01;27.10;65.80
44477;DHT22;30180;44.788;10.366;2023-07-13T03:38:32;27.10;65.80
44477;DHT22;30180;44.788;10.366;2023-07-13T03:41:00;27.10;65.80
44477;DHT22;30180;44.788;10.366;2023-07-13T03:43:29;27.10;65.80
44477;DHT22;30180;44.788;10.366;2023-07-13T03:45:57;27.10;65.80
44477;DHT22;30180;44.788;10.366;2023-07-13T03:48:26;27.00;65.70
44477;DHT22;30180;44.788;10.366;2023-07-13T03:50:54;27.00;65.70
44477;DHT22;30180;44.788;10.366;2023-07-13T03:53:22;27.10;65.80
44477;DHT22;30180;44.788;10.366;2023-07-13T03:55:52;27.00;65.70
44477;DHT22;30180;44.788;10.366;2023-07-13T03:58:27;27.10;65.80
44477;DHT22;30180;44.788;10.366;2023-07-13T04:00:56;27.10;65.80
44477;DHT22;30180;44.788;10.366;2023-07-13T04:03:25;27.10;65.80
44477;DHT22;30180;44.788;10.366;2023-07-13T04:05:55;27.00;65.80
44477;DHT22;30180;44.788;10.366;2023-07-13T04:08:28;27.00;65.70
44477;DHT22;30180;44.788;10.366;2023-07-13T04:10:58;27.00;65.80
44477;DHT22;30180;44.788;10.366;2023-07-13T04:13:27;27.10;65.80
44477;DHT22;30180;44.788;10.366;2023-07-13T04:15:55;27.10;65.90
44477;DHT22;30180;44.788;10.366;2023-07-13T04:18:24;27.10;65.90
44477;DHT22;30180;44.788;10.366;2023-07-13T04:20:53;27.00;65.80
44477;DHT22;30180;44.788;10.366;2023-07-13T04:23:21;27.10;65.90
44477;DHT22;30180;44.788;10.366;2023-07-13T04:25:51;27.10;65.90
44477;DHT22;30180;44.788;10.366;2023-07-13T04:28:23;27.00;65.80
44477;DHT22;30180;44.788;10.366;2023-07-13T04:30:51;27.00;65.90
44477;DHT22;30180;44.788;10.366;2023-07-13T04:33:20;27.00;65.80
44477;DHT22;30180;44.788;10.366;2023-07-13T04:35:50;27.00;65.80
44477;DHT22;30180;44.788;10.366;2023-07-13T04:38:24;27.00;65.90
44477;DHT22;30180;44.788;10.366;2023-07-13T04:40:55;27.10;65.90
44477;DHT22;30180;44.788;10.366;2023-07-13T04:43:26;27.00;65.80
44477;DHT22;30180;44.788;10.366;2023-07-13T04:45:54;27.00;65.90
44477;DHT22;30180;44.788;10.366;2023-07-13T04:48:24;27.10;65.90
44477;DHT22;30180;44.788;10.366;2023-07-13T04:50:56;27.00;65.90
44477;DHT22;30180;44.788;10.366;2023-07-13T04:53:25;27.00;65.90
44477;DHT22;30180;44.788;10.366;2023-07-13T04:55:54;27.00;65.90
44477;DHT22;30180;44.788;10.366;2023-07-13T04:58:23;27.00;65.90
44477;DHT22;30180;44.788;10.366;2023-07-13T05:00:53;27.00;65.90
44477;DHT22;30180;44.788;10.366;2023-07-13T05:03:21;27.00;65.90
44477;DHT22;30180;44.788;10.366;2023-07-13T05:05:57;27.00;65.90
44477;DHT22;30180;44.788;10.366;2023-07-13T05:08:25;27.00;65.90
44477;DHT22;30180;44.788;10.366;2023-07-13T05:10:55;27.00;65.90
44477;DHT22;30180;44.788;10.366;2023-07-13T05:13:24;27.00;66.00
44477;DHT22;30180;44.788;10.366;2023-07-13T05:15:58;27.00;65.90
44477;DHT22;30180;44.788;10.366;2023-07-13T05:18:27;27.00;65.90
44477;DHT22;30180;44.788;10.366;2023-07-13T05:21:00;27.00;65.90
44477;DHT22;30180;44.788;10.366;2023-07-13T05:23:29;27.00;65.90
44477;DHT22;30180;44.788;10.366;2023-07-13T05:25:58;27.00;65.90
44477;DHT22;30180;44.788;10.366;2023-07-13T05:28:26;27.00;65.90
44477;DHT22;30180;44.788;10.366;2023-07-13T05:30:57;27.10;66.00
44477;DHT22;30180;44.788;10.366;2023-07-13T05:33:26;27.00;65.90
44477;DHT22;30180;44.788;10.366;2023-07-13T05:35:55;27.00;65.90
44477;DHT22;30180;44.788;10.366;2023-07-13T05:38:23;27.00;65.90
44477;DHT22;30180;44.788;10.366;2023-07-13T05:40:54;27.00;65.90
44477;DHT22;30180;44.788;10.366;2023-07-13T05:43:23;27.00;65.90
44477;DHT22;30180;44.788;10.366;2023-07-13T05:45:53;27.00;65.90
44477;DHT22;30180;44.788;10.366;2023-07-13T05:48:23;27.00;65.90
44477;DHT22;30180;44.788;10.366;2023-07-13T05:50:52;27.00;65.90
44477;DHT22;30180;44.788;10.366;2023-07-13T05:53:20;27.00;65.90
44477;DHT22;30180;44.788;10.366;2023-07-13T05:55:49;27.00;65.90
44477;DHT22;30180;44.788;10.366;2023-07-13T05:58:20;27.00;65.90
44477;DHT22;30180;44.788;10.366;2023-07-13T06:00:59;27.00;65.90
44477;DHT22;30180;44.788;10.366;2023-07-13T06:03:29;27.00;65.90
44477;DHT22;30180;44.788;10.366;2023-07-13T06:05:57;27.00;65.90
44477;DHT22;30180;44.788;10.366;2023-07-13T06:08:27;27.00;65.90
44477;DHT22;30180;44.788;10.366;2023-07-13T06:11:02;27.00;65.90
44477;DHT22;30180;44.788;10.366;2023-07-13T06:13:30;27.00;66.00
44477;DHT22;30180;44.788;10.366;2023-07-13T06:15:59;27.00;65.90
44477;DHT22;30180;44.788;10.366;2023-07-13T06:18:29;27.00;65.90
44477;DHT22;30180;44.788;10.366;2023-07-13T06:20:57;27.00;65.90
44477;DHT22;30180;44.788;10.366;2023-07-13T06:23:25;27.00;66.00
44477;DHT22;30180;44.788;10.366;2023-07-13T06:25:54;27.00;66.00
44477;DHT22;30180;44.788;10.366;2023-07-13T06:28:23;27.00;66.00
44477;DHT22;30180;44.788;10.366;2023-07-13T06:30:51;27.00;66.00
44477;DHT22;30180;44.788;10.366;2023-07-13T06:33:20;27.00;66.00
44477;DHT22;30180;44.788;10.366;2023-07-13T06:35:50;27.00;66.00
44477;DHT22;30180;44.788;10.366;2023-07-13T06:38:18;27.00;66.00
44477;DHT22;30180;44.788;10.366;2023-07-13T06:40:47;27.00;65.90
44477;DHT22;30180;44.788;10.366;2023-07-13T06:43:16;27.00;66.00
44477;DHT22;30180;44.788;10.366;2023-07-13T06:45:46;27.00;66.00
44477;DHT22;30180;44.788;10.366;2023-07-13T06:48:17;27.00;66.00
44477;DHT22;30180;44.788;10.366;2023-07-13T06:50:47;27.00;66.00
44477;DHT22;30180;44.788;10.366;2023-07-13T06:53:18;27.00;66.00
44477;DHT22;30180;44.788;10.366;2023-07-13T06:55:47;27.00;66.00
44477;DHT22;30180;44.788;10.366;2023-07-13T06:58:16;27.00;66.00
44477;DHT22;30180;44.788;10.366;2023-07-13T07:00:46;27.00;66.00
44477;DHT22;30180;44.788;10.366;2023-07-13T07:03:14;27.00;65.90
44477;DHT22;30180;44.788;10.366;2023-07-13T07:05:43;27.00;65.90
44477;DHT22;30180;44.788;10.366;2023-07-13T07:08:11;27.00;65.90
44477;DHT22;30180;44.788;10.366;2023-07-13T07:10:42;27.00;65.90
44477;DHT22;30180;44.788;10.366;2023-07-13T07:13:10;27.00;65.90
44477;DHT22;30180;44.788;10.366;2023-07-13T07:15:38;27.00;66.00
44477;DHT22;30180;44.788;10.366;2023-07-13T07:18:07;27.00;66.00
44477;DHT22;30180;44.788;10.366;2023-07-13T07:20:35;27.00;66.00
44477;DHT22;30180;44.788;10.366;2023-07-13T07:23:04;27.00;66.00
44477;DHT22;30180;44.788;10.366;2023-07-13T07:25:33;27.00;66.00
44477;DHT22;30180;44.788;10.366;2023-07-13T07:28:05;27.00;66.00
44477;DHT22;30180;44.788;10.366;2023-07-13T07:30:36;27.00;65.90
44477;DHT22;30180;44.788;10.366;2023-07-13T07:33:08;27.00;65.90
44477;DHT22;30180;44.788;10.366;2023-07-13T07:35:36;27.00;66.00
44477;DHT22;30180;44.788;10.366;2023-07-13T07:38:25;27.00;66.00
44477;DHT22;30180;44.788;10.366;2023-07-13T07:40:53;27.00;66.00
44477;DHT22;30180;44.788;10.366;2023-07-13T07:43:26;27.00;66.00
44477;DHT22;30180;44.788;10.366;2023-07-13T07:45:54;27.00;66.00
44477;DHT22;30180;44.788;10.366;2023-07-13T07:48:23;27.00;66.00
44477;DHT22;30180;44.788;10.366;2023-07-13T07:50:52;27.00;66.00
44477;DHT22;30180;44.788;10.366;2023-07-13T07:53:20;27.00;66.00
44477;DHT22;30180;44.788;10.366;2023-07-13T07:55:49;27.00;66.00
44477;DHT22;30180;44.788;10.366;2023-07-13T07:58:20;27.00;66.00
44477;DHT22;30180;44.788;10.366;2023-07-13T08:00:53;27.00;66.00
44477;DHT22;30180;44.788;10.366;2023-07-13T08:03:25;27.00;66.00
44477;DHT22;30180;44.788;10.366;2023-07-13T08:05:56;27.00;66.00
44477;DHT22;30180;44.788;10.366;2023-07-13T08:08:45;27.00;66.00
44477;DHT22;30180;44.788;10.366;2023-07-13T08:11:13;27.00;66.00
44477;DHT22;30180;44.788;10.366;2023-07-13T08:13:44;27.00;66.00
44477;DHT22;30180;44.788;10.366;2023-07-13T08:16:14;27.00;66.00
44477;DHT22;30180;44.788;10.366;2023-07-13T08:18:43;27.00;66.00
44477;DHT22;30180;44.788;10.366;2023-07-13T08:21:11;27.00;66.00
44477;DHT22;30180;44.788;10.366;2023-07-13T08:23:40;27.00;66.00
44477;DHT22;30180;44.788;10.366;2023-07-13T08:26:08;27.00;66.00
44477;DHT22;30180;44.788;10.366;2023-07-13T08:28:37;27.00;66.00
44477;DHT22;30180;44.788;10.366;2023-07-13T08:31:06;27.00;66.00
44477;DHT22;30180;44.788;10.366;2023-07-13T08:33:37;26.90;66.00
44477;DHT22;30180;44.788;10.366;2023-07-13T08:36:08;27.00;66.00
44477;DHT22;30180;44.788;10.366;2023-07-13T08:38:36;27.00;66.00
44477;DHT22;30180;44.788;10.366;2023-07-13T08:41:11;27.00;66.00
44477;DHT22;30180;44.788;10.366;2023-07-13T08:43:41;26.90;66.00
44477;DHT22;30180;44.788;10.366;2023-07-13T08:46:14;27.00;66.00
44477;DHT22;30180;44.788;10.366;2023-07-13T08:48:49;26.90;65.90
44477;DHT22;30180;44.788;10.366;2023-07-13T08:51:35;26.90;65.90
44477;DHT22;30180;44.788;10.366;2023-07-13T08:54:15;26.90;66.00
44477;DHT22;30180;44.788;10.366;2023-07-13T08:56:46;26.90;66.00
44477;DHT22;30180;44.788;10.366;2023-07-13T08:59:17;26.90;66.50
44477;DHT22;30180;44.788;10.366;2023-07-13T09:04:43;26.90;65.90
44477;DHT22;30180;44.788;10.366;2023-07-13T09:07:21;26.90;65.90
44477;DHT22;30180;44.788;10.366;2023-07-13T09:10:02;26.90;65.90
44477;DHT22;30180;44.788;10.366;2023-07-13T09:12:40;26.90;65.90
44477;DHT22;30180;44.788;10.366;2023-07-13T09:15:27;26.90;65.90
44477;DHT22;30180;44.788;10.366;2023-07-13T09:18:02;26.90;66.00
44477;DHT22;30180;44.788;10.366;2023-07-13T09:20:35;26.90;65.90
44477;DHT22;30180;44.788;10.366;2023-07-13T09:23:10;26.90;66.00
44477;DHT22;30180;44.788;10.366;2023-07-13T09:25:41;26.90;66.00
44477;DHT22;30180;44.788;10.366;2023-07-13T09:28:17;26.90;66.00
44477;DHT22;30180;44.788;10.366;2023-07-13T09:30:52;27.00;66.10
44477;DHT22;30180;44.788;10.366;2023-07-13T09:33:21;27.00;66.10
44477;DHT22;30180;44.788;10.366;2023-07-13T09:35:51;26.90;66.00
44477;DHT22;30180;44.788;10.366;2023-07-13T09:38:22;26.90;66.30
44477;DHT22;30180;44.788;10.366;2023-07-13T09:41:02;26.90;66.00
44477;DHT22;30180;44.788;10.366;2023-07-13T09:43:31;26.90;66.00
44477;DHT22;30180;44.788;10.366;2023-07-13T09:46:00;26.90;66.00
44477;DHT22;30180;44.788;10.366;2023-07-13T09:48:35;26.90;66.00
44477;DHT22;30180;44.788;10.366;2023-07-13T09:51:13;26.90;66.00
44477;DHT22;30180;44.788;10.366;2023-07-13T09:53:42;26.90;66.00
44477;DHT22;30180;44.788;10.366;2023-07-13T09:56:20;26.90;66.00
44477;DHT22;30180;44.788;10.366;2023-07-13T09:58:48;26.90;66.00
44477;DHT22;30180;44.788;10.366;2023-07-13T10:01:31;26.90;66.00
44477;DHT22;30180;44.788;10.366;2023-07-13T10:04:00;26.90;66.00
44477;DHT22;30180;44.788;10.366;2023-07-13T10:06:31;26.90;66.00
44477;DHT22;30180;44.788;10.366;2023-07-13T10:09:00;26.90;66.00
44477;DHT22;30180;44.788;10.366;2023-07-13T10:11:29;26.90;66.00
44477;DHT22;30180;44.788;10.366;2023-07-13T10:13:59;26.90;66.00
44477;DHT22;30180;44.788;10.366;2023-07-13T10:16:31;26.90;66.00
44477;DHT22;30180;44.788;10.366;2023-07-13T10:19:03;27.00;66.10
44477;DHT22;30180;44.788;10.366;2023-07-13T10:21:38;26.90;66.00
44477;DHT22;30180;44.788;10.366;2023-07-13T10:24:14;26.90;66.00
44477;DHT22;30180;44.788;10.366;2023-07-13T10:26:50;26.90;66.00
44477;DHT22;30180;44.788;10.366;2023-07-13T10:29:20;26.90;66.00
44477;DHT22;30180;44.788;10.366;2023-07-13T10:31:50;26.90;66.00
44477;DHT22;30180;44.788;10.366;2023-07-13T10:34:19;26.90;66.00
44477;DHT22;30180;44.788;10.366;2023-07-13T10:36:49;26.90;66.00
44477;DHT22;30180;44.788;10.366;2023-07-13T10:39:19;26.90;66.00
44477;DHT22;30180;44.788;10.366;2023-07-13T10:41:53;26.90;66.00
44477;DHT22;30180;44.788;10.366;2023-07-13T10:44:25;26.90;66.00
44477;DHT22;30180;44.788;10.366;2023-07-13T10:46:58;26.90;66.00
44477;DHT22;30180;44.788;10.366;2023-07-13T10:49:28;26.90;66.60
44477;DHT22;30180;44.788;10.366;2023-07-13T10:51:59;26.90;66.00
44477;DHT22;30180;44.788;10.366;2023-07-13T10:54:30;26.90;66.00
44477;DHT22;30180;44.788;10.366;2023-07-13T10:57:17;26.90;66.00
44477;DHT22;30180;44.788;10.366;2023-07-13T10:59:48;26.90;66.00
44477;DHT22;30180;44.788;10.366;2023-07-13T11:02:26;26.90;66.60
44477;DHT22;30180;44.788;10.366;2023-07-13T11:04:57;26.90;66.00
44477;DHT22;30180;44.788;10.366;2023-07-13T11:07:29;26.90;66.00
44477;DHT22;30180;44.788;10.366;2023-07-13T11:10:00;26.90;66.00
44477;DHT22;30180;44.788;10.366;2023-07-13T11:12:52;26.90;66.00
44477;DHT22;30180;44.788;10.366;2023-07-13T11:15:31;26.90;66.00
44477;DHT22;30180;44.788;10.366;2023-07-13T11:18:03;26.90;66.00
44477;DHT22;30180;44.788;10.366;2023-07-13T11:20:37;26.90;66.00
44477;DHT22;30180;44.788;10.366;2023-07-13T11:23:31;26.90;66.00
44477;DHT22;30180;44.788;10.366;2023-07-13T11:26:00;26.90;66.00
44477;DHT22;30180;44.788;10.366;2023-07-13T11:28:31;26.90;66.00
44477;DHT22;30180;44.788;10.366;2023-07-13T11:31:03;26.90;66.00
44477;DHT22;30180;44.788;10.366;2023-07-13T11:33:59;26.90;66.00
44477;DHT22;30180;44.788;10.366;2023-07-13T11:36:35;26.90;66.00
44477;DHT22;30180;44.788;10.366;2023-07-13T11:39:17;26.90;66.00
44477;DHT22;30180;44.788;10.366;2023-07-13T11:41:50;26.90;66.00
44477;DHT22;30180;44.788;10.366;2023-07-13T11:44:21;26.90;66.00
44477;DHT22;30180;44.788;10.366;2023-07-13T11:46:53;26.90;66.00
44477;DHT22;30180;44.788;10.366;2023-07-13T11:49:23;26.90;66.00
44477;DHT22;30180;44.788;10.366;2023-07-13T11:51:54;26.90;66.00
44477;DHT22;30180;44.788;10.366;2023-07-13T11:54:27;26.90;66.00
44477;DHT22;30180;44.788;10.366;2023-07-13T11:56:59;26.90;66.00
44477;DHT22;30180;44.788;10.366;2023-07-13T11:59:30;26.90;66.00
44477;DHT22;30180;44.788;10.366;2023-07-13T12:02:00;26.90;66.00
44477;DHT22;30180;44.788;10.366;2023-07-13T12:04:32;26.90;66.00
44477;DHT22;30180;44.788;10.366;2023-07-13T12:07:05;26.90;66.00
44477;DHT22;30180;44.788;10.366;2023-07-13T12:09:37;26.90;66.00
44477;DHT22;30180;44.788;10.366;2023-07-13T12:12:11;26.90;66.00
44477;DHT22;30180;44.788;10.366;2023-07-13T12:14:40;26.90;66.00
44477;DHT22;30180;44.788;10.366;2023-07-13T12:17:15;26.90;66.00
44477;DHT22;30180;44.788;10.366;2023-07-13T12:19:45;26.90;66.00
44477;DHT22;30180;44.788;10.366;2023-07-13T12:22:16;26.90;66.00
44477;DHT22;30180;44.788;10.366;2023-07-13T12:24:48;26.90;66.00
44477;DHT22;30180;44.788;10.366;2023-07-13T12:27:20;26.90;66.00
44477;DHT22;30180;44.788;10.366;2023-07-13T12:29:51;26.90;66.00
44477;DHT22;30180;44.788;10.366;2023-07-13T12:32:20;26.90;66.00
44477;DHT22;30180;44.788;10.366;2023-07-13T12:34:53;26.90;66.00
44477;DHT22;30180;44.788;10.366;2023-07-13T12:37:23;26.90;66.00
44477;DHT22;30180;44.788;10.366;2023-07-13T12:39:53;26.90;66.00
44477;DHT22;30180;44.788;10.366;2023-07-13T12:42:24;26.90;66.00
44477;DHT22;30180;44.788;10.366;2023-07-13T12:44:58;26.90;66.00
44477;DHT22;30180;44.788;10.366;2023-07-13T12:47:29;26.90;66.00
44477;DHT22;30180;44.788;10.366;2023-07-13T12:49:59;26.90;66.00
44477;DHT22;30180;44.788;10.366;2023-07-13T12:52:30;26.90;66.00
44477;DHT22;30180;44.788;10.366;2023-07-13T12:55:05;26.90;66.00
44477;DHT22;30180;44.788;10.366;2023-07-13T12:57:40;26.90;66.00
44477;DHT22;30180;44.788;10.366;2023-07-13T13:00:23;26.90;66.00
44477;DHT22;30180;44.788;10.366;2023-07-13T13:02:54;26.90;66.00
44477;DHT22;30180;44.788;10.366;2023-07-13T13:05:41;26.90;66.00
44477;DHT22;30180;44.788;10.366;2023-07-13T13:08:12;26.90;66.00
44477;DHT22;30180;44.788;10.366;2023-07-13T13:10:42;26.90;66.10
44477;DHT22;30180;44.788;10.366;2023-07-13T13:13:10;26.90;66.00
44477;DHT22;30180;44.788;10.366;2023-07-13T13:15:39;26.90;66.00
44477;DHT22;30180;44.788;10.366;2023-07-13T13:18:16;26.90;66.00
44477;DHT22;30180;44.788;10.366;2023-07-13T13:20:45;26.90;66.00
44477;DHT22;30180;44.788;10.366;2023-07-13T13:23:15;26.90;66.00
44477;DHT22;30180;44.788;10.366;2023-07-13T13:25:48;26.90;66.00
44477;DHT22;30180;44.788;10.366;2023-07-13T13:28:18;26.90;66.00
44477;DHT22;30180;44.788;10.366;2023-07-13T13:30:48;26.90;66.00
44477;DHT22;30180;44.788;10.366;2023-07-13T13:33:20;26.90;66.00
44477;DHT22;30180;44.788;10.366;2023-07-13T13:35:48;26.90;66.10
44477;DHT22;30180;44.788;10.366;2023-07-13T13:38:19;26.90;66.00
44477;DHT22;30180;44.788;10.366;2023-07-13T13:40:49;26.90;66.00
44477;DHT22;30180;44.788;10.366;2023-07-13T13:43:18;26.90;66.00
44477;DHT22;30180;44.788;10.366;2023-07-13T13:45:47;26.90;66.10
44477;DHT22;30180;44.788;10.366;2023-07-13T13:48:18;26.90;66.00
44477;DHT22;30180;44.788;10.366;2023-07-13T13:50:47;26.90;66.00
44477;DHT22;30180;44.788;10.366;2023-07-13T13:53:16;26.90;66.00
44477;DHT22;30180;44.788;10.366;2023-07-13T13:55:44;26.90;66.00
44477;DHT22;30180;44.788;10.366;2023-07-13T13:58:15;26.90;66.00
44477;DHT22;30180;44.788;10.366;2023-07-13T14:00:43;26.90;66.00
44477;DHT22;30180;44.788;10.366;2023-07-13T14:03:15;26.90;66.00
44477;DHT22;30180;44.788;10.366;2023-07-13T14:05:45;26.90;66.00
44477;DHT22;30180;44.788;10.366;2023-07-13T14:08:15;26.90;66.00
44477;DHT22;30180;44.788;10.366;2023-07-13T14:10:45;26.90;66.00
44477;DHT22;30180;44.788;10.366;2023-07-13T14:13:18;26.90;66.00
44477;DHT22;30180;44.788;10.366;2023-07-13T14:15:48;26.90;66.00
44477;DHT22;30180;44.788;10.366;2023-07-13T14:18:16;26.90;66.00
44477;DHT22;30180;44.788;10.366;2023-07-13T14:20:46;26.90;66.00
44477;DHT22;30180;44.788;10.366;2023-07-13T14:23:15;26.90;66.00
44477;DHT22;30180;44.788;10.366;2023-07-13T14:25:46;26.90;66.00
44477;DHT22;30180;44.788;10.366;2023-07-13T14:28:25;26.90;66.00
44477;DHT22;30180;44.788;10.366;2023-07-13T14:30:54;26.90;66.10
44477;DHT22;30180;44.788;10.366;2023-07-13T14:33:22;26.90;66.00
44477;DHT22;30180;44.788;10.366;2023-07-13T14:35:51;26.90;66.00
44477;DHT22;30180;44.788;10.366;2023-07-13T14:38:21;26.90;66.00
44477;DHT22;30180;44.788;10.366;2023-07-13T14:40:49;26.90;66.00
44477;DHT22;30180;44.788;10.366;2023-07-13T14:43:18;26.90;66.00
44477;DHT22;30180;44.788;10.366;2023-07-13T14:45:49;26.90;66.00
44477;DHT22;30180;44.788;10.366;2023-07-13T14:48:20;26.90;66.00
44477;DHT22;30180;44.788;10.366;2023-07-13T14:50:51;26.90;66.00
44477;DHT22;30180;44.788;10.366;2023-07-13T14:53:21;26.90;66.00
44477;DHT22;30180;44.788;10.366;2023-07-13T14:55:49;26.90;66.00
44477;DHT22;30180;44.788;10.366;2023-07-13T14:58:18;26.90;66.00
44477;DHT22;30180;44.788;10.366;2023-07-13T15:00:48;26.90;66.00
44477;DHT22;30180;44.788;10.366;2023-07-13T15:03:23;26.90;66.00
44477;DHT22;30180;44.788;10.366;2023-07-13T15:05:53;26.90;66.60
44477;DHT22;30180;44.788;10.366;2023-07-13T15:08:21;26.90;66.00
44477;DHT22;30180;44.788;10.366;2023-07-13T15:10:50;26.90;66.00
44477;DHT22;30180;44.788;10.366;2023-07-13T15:13:20;26.90;66.60
44477;DHT22;30180;44.788;10.366;2023-07-13T15:15:53;26.90;66.00
44477;DHT22;30180;44.788;10.366;2023-07-13T15:18:23;26.90;66.00
44477;DHT22;30180;44.788;10.366;2023-07-13T15:20:52;26.90;66.00
44477;DHT22;30180;44.788;10.366;2023-07-13T15:23:23;26.90;66.00
44477;DHT22;30180;44.788;10.366;2023-07-13T15:25:53;26.90;66.00
44477;DHT22;30180;44.788;10.366;2023-07-13T15:28:21;26.90;66.00
44477;DHT22;30180;44.788;10.366;2023-07-13T15:30:52;26.90;66.00
44477;DHT22;30180;44.788;10.366;2023-07-13T15:33:23;26.90;66.00
44477;DHT22;30180;44.788;10.366;2023-07-13T15:35:52;26.90;66.00
44477;DHT22;30180;44.788;10.366;2023-07-13T15:38:23;26.90;66.00
44477;DHT22;30180;44.788;10.366;2023-07-13T15:40:53;26.90;66.00